Impros — D5BS7 — position and weather

sailwx.info

Track history (hours):
 
Tides and Currents Weather Stations Pressure Air Temp Water Temp Dewpoint Dewpoint Depression Visibility Wind Speed Wind Dir Waves Ship Positions

Impros

Last reported at 2014-Jul-11 14:33 UTC. Time now 2014-Jul-23 11:30 UTC.
Position N 22°19' E 114°06'.
Warning: this ship's position is 11 days out of date.

Length 244 m; draft 12 m.

Type: Tanker. MMSI: 636015595.

Date/timePositionNaut miles runAvg speedWind from/ knotsBaromVisibWave heightAir tempDewpointWater temp
2014-Jul-11 14:33N 22°19' E 114°06'0 0.0
2014-Jul-11 00:15N 22°20' E 114°06'0 0.0
2014-Jul-10 17:26N 22°20' E 114°06'0 0.0
2014-Jul-10 16:08N 22°20' E 114°06'0 0.0
2014-Jul-10 12:32N 22°20' E 114°06'0 0.0
2014-Jul-09 23:29N 22°20' E 114°06'0 0.0
2014-Jul-09 22:11N 22°20' E 114°06'0 0.0
2014-Jul-09 20:11N 22°20' E 114°06'0 0.0
2014-Jul-09 19:23N 22°20' E 114°06'0 0.0
2014-Jul-09 17:29N 22°20' E 114°06'1 1.3
2014-Jul-09 16:31N 22°18' E 114°06'  
2014-Jul-03 21:07N 01°13' E 103°57'3 4.8
2014-Jul-03 20:33N 01°13' E 103°55'3 0.3
2014-Jul-03 10:30N 01°16' E 103°55'0 0.1
2014-Jul-03 08:26N 01°16' E 103°55'6 5.7
2014-Jul-03 07:25N 01°12' E 103°50'3 2.9
2014-Jul-03 06:33N 01°12' E 103°48'  
Track history (hours):
 
Tides and Currents Weather Stations Pressure Air Temp Water Temp Dewpoint Dewpoint Depression Visibility Wind Speed Wind Dir Waves Ship Positions

Impros

Last reported at 2014-Jul-11 14:33 UTC. Time now 2014-Jul-23 11:30 UTC.
Position N 22°19' E 114°06'.
Warning: this ship's position is 11 days out of date.

Length 244 m; draft 12 m.

Type: Tanker. MMSI: 636015595.

Date/timePositionNaut miles runAvg speedWind from/ knotsBaromVisibWave heightAir tempDewpointWater temp
2014-Jul-11 14:33N 22°19' E 114°06'0 0.0
2014-Jul-11 00:15N 22°20' E 114°06'0 0.0
2014-Jul-10 17:26N 22°20' E 114°06'0 0.0
2014-Jul-10 16:08N 22°20' E 114°06'0 0.0
2014-Jul-10 12:32N 22°20' E 114°06'0 0.0
2014-Jul-09 23:29N 22°20' E 114°06'0 0.0
2014-Jul-09 22:11N 22°20' E 114°06'0 0.0
2014-Jul-09 20:11N 22°20' E 114°06'0 0.0
2014-Jul-09 19:23N 22°20' E 114°06'0 0.0
2014-Jul-09 17:29N 22°20' E 114°06'1 1.3
2014-Jul-09 16:31N 22°18' E 114°06'  
2014-Jul-03 21:07N 01°13' E 103°57'3 4.8
2014-Jul-03 20:33N 01°13' E 103°55'3 0.3
2014-Jul-03 10:30N 01°16' E 103°55'0 0.1
2014-Jul-03 08:26N 01°16' E 103°55'6 5.7
2014-Jul-03 07:25N 01°12' E 103°50'3 2.9
2014-Jul-03 06:33N 01°12' E 103°48'  

Dump ship's entire track history